Time;durP1;ratioP1;P1;durP2;ratioP2;P2;SDS_P1;SDS_P2;PMS_P1;PMS_P2;Temp;Humidity;BMP_temperature;BMP_pressure;BME280_temperature;BME280_humidity;BME280_pressure;Samples;Min_cycle;Max_cycle;Signal;HPM_P1;HPM_P2
2021/10/24 00:00:32;;;;;;;5.80;2.10;;;;;;;8.76;48.92;101320.69;4422392;32;35799;-47
2021/10/24 00:03:01;;;;;;;9.00;2.80;;;;;;;8.98;48.91;101315.31;4422176;32;35129;-47
2021/10/24 00:05:29;;;;;;;8.55;2.35;;;;;;;8.79;49.22;101313.84;4421278;32;33890;-47
2021/10/24 00:07:56;;;;;;;8.20;2.50;;;;;;;9.08;48.79;101317.34;4422138;32;34629;-46
2021/10/24 00:10:24;;;;;;;7.70;2.67;;;;;;;8.92;48.82;101314.22;4422156;32;34902;-47
2021/10/24 00:12:52;;;;;;;4.32;2.37;;;;;;;9.07;48.74;101314.69;4422157;32;34412;-47
2021/10/24 00:15:19;;;;;;;5.93;2.60;;;;;;;9.17;48.61;101316.75;4422389;32;34379;-46
2021/10/24 00:17:47;;;;;;;6.18;2.42;;;;;;;9.25;48.61;101325.63;4422128;32;34244;-47
2021/10/24 00:20:15;;;;;;;10.25;2.65;;;;;;;9.22;48.57;101322.94;4421033;32;35915;-46
2021/10/24 00:22:42;;;;;;;8.48;2.62;;;;;;;9.12;48.56;101324.41;4421959;32;34247;-47
2021/10/24 00:25:10;;;;;;;8.80;2.50;;;;;;;9.25;48.47;101333.41;4422343;32;33426;-47
2021/10/24 00:27:37;;;;;;;7.15;2.53;;;;;;;9.19;48.88;101321.16;4421797;32;33739;-47
2021/10/24 00:30:05;;;;;;;7.93;2.65;;;;;;;9.27;48.37;101323.97;4421904;32;34741;-47
2021/10/24 00:32:35;;;;;;;6.60;3.17;;;;;;;9.16;48.83;101327.94;4421862;32;33727;-47
2021/10/24 00:35:03;;;;;;;7.40;2.65;;;;;;;9.15;48.73;101323.62;4421940;32;33135;-47
2021/10/24 00:37:31;;;;;;;7.80;2.80;;;;;;;9.04;49.01;101309.41;4420719;32;34599;-47
2021/10/24 00:39:59;;;;;;;6.97;2.90;;;;;;;8.88;49.19;101309.78;4421841;32;34902;-47
2021/10/24 00:42:47;;;;;;;6.90;2.70;;;;;;;8.94;48.90;101307.41;4421752;32;35349;-46
2021/10/24 00:45:15;;;;;;;5.47;2.92;;;;;;;8.85;49.27;101315.78;4421890;32;34207;-48
2021/10/24 00:47:42;;;;;;;9.70;2.80;;;;;;;8.91;48.98;101312.50;4422149;32;34719;-47
2021/10/24 00:50:10;;;;;;;9.60;2.85;;;;;;;8.92;49.05;101309.94;4423436;32;34716;-47
2021/10/24 00:52:39;;;;;;;10.45;3.05;;;;;;;8.85;49.35;101307.97;4423620;32;35039;-47
2021/10/24 00:55:08;;;;;;;8.45;2.70;;;;;;;8.77;49.40;101305.16;4422306;32;34104;-47
2021/10/24 00:57:36;;;;;;;8.85;3.00;;;;;;;8.58;50.04;101314.94;4423630;32;33727;-48
2021/10/24 01:00:10;;;;;;;7.43;2.70;;;;;;;8.63;49.99;101316.81;4422386;32;34727;-46
2021/10/24 01:02:38;;;;;;;9.38;2.58;;;;;;;8.71;49.61;101319.66;4423588;32;35042;-48
2021/10/24 01:05:07;;;;;;;6.45;2.25;;;;;;;8.65;49.78;101314.28;4423586;32;33583;-47
2021/10/24 01:07:37;;;;;;;6.70;3.03;;;;;;;8.37;50.17;101316.84;4423526;32;33387;-46
2021/10/24 01:10:07;;;;;;;4.68;2.30;;;;;;;7.98;51.33;101325.00;4422539;32;34933;-47
2021/10/24 01:12:36;;;;;;;6.62;2.60;;;;;;;8.27;50.90;101314.78;4422198;32;34381;-48
2021/10/24 01:15:04;;;;;;;8.18;2.83;;;;;;;8.18;50.98;101316.19;4423795;32;34472;-47
2021/10/24 01:17:32;;;;;;;9.80;3.37;;;;;;;8.43;50.54;101329.97;4423349;32;34042;-48
2021/10/24 01:20:01;;;;;;;6.70;2.60;;;;;;;8.38;50.58;101329.84;4423450;32;35357;-47
2021/10/24 01:22:29;;;;;;;6.80;2.92;;;;;;;8.60;50.22;101315.84;4423332;32;35170;-47
2021/10/24 01:24:56;;;;;;;8.70;2.92;;;;;;;8.51;50.25;101321.59;4423510;32;33998;-48
2021/10/24 01:27:24;;;;;;;8.68;2.70;;;;;;;8.18;50.71;101321.37;4423467;32;34108;-47
2021/10/24 01:29:51;;;;;;;8.60;2.47;;;;;;;8.27;50.75;101318.25;4423514;32;34661;-47
2021/10/24 01:32:19;;;;;;;7.53;2.72;;;;;;;8.35;50.47;101323.66;4423598;32;34614;-47
2021/10/24 01:34:48;;;;;;;6.70;2.92;;;;;;;8.35;50.48;101324.53;4423424;32;33532;-46
2021/10/24 01:37:16;;;;;;;8.02;3.15;;;;;;;8.38;50.57;101322.06;4422071;32;33883;-47
2021/10/24 01:39:44;;;;;;;8.85;3.28;;;;;;;8.64;50.09;101328.06;4423359;32;35726;-47
2021/10/24 01:42:12;;;;;;;7.62;2.33;;;;;;;8.43;50.38;101327.41;4422294;32;33661;-47
2021/10/24 01:44:39;;;;;;;8.75;3.00;;;;;;;8.57;50.44;101327.00;4423544;32;33576;-49
2021/10/24 01:47:07;;;;;;;8.13;3.45;;;;;;;8.56;50.58;101335.59;4423445;32;33764;-47
2021/10/24 01:49:36;;;;;;;9.30;3.45;;;;;;;8.62;50.35;101334.94;4423381;32;34852;-47
2021/10/24 01:52:04;;;;;;;10.30;3.35;;;;;;;8.62;50.45;101343.59;4423317;32;34305;-47
2021/10/24 01:54:32;;;;;;;9.10;3.22;;;;;;;8.58;50.45;101336.53;4422202;32;32999;-47
2021/10/24 01:57:00;;;;;;;9.50;2.92;;;;;;;8.55;50.47;101336.47;4423535;32;33629;-48
2021/10/24 01:59:28;;;;;;;11.55;2.78;;;;;;;8.36;50.75;101338.41;4422280;32;34834;-47
2021/10/24 02:01:57;;;;;;;8.60;3.05;;;;;;;8.07;51.43;101345.16;4423440;32;34587;-47
2021/10/24 02:04:27;;;;;;;8.75;2.75;;;;;;;8.05;51.56;101344.22;4423291;32;33941;-47
2021/10/24 02:06:56;;;;;;;7.15;2.70;;;;;;;8.08;51.45;101336.56;4423399;32;34211;-47
2021/10/24 02:09:24;;;;;;;6.37;2.87;;;;;;;8.13;51.35;101342.75;4423007;32;34737;-46
2021/10/24 02:11:51;;;;;;;9.10;3.80;;;;;;;8.12;51.30;101346.19;4423125;32;33818;-47
2021/10/24 02:14:19;;;;;;;6.97;2.85;;;;;;;8.22;50.93;101345.69;4423359;32;33259;-47
2021/10/24 02:16:46;;;;;;;7.53;2.83;;;;;;;8.27;50.88;101351.94;4422992;32;33808;-47
2021/10/24 02:19:15;;;;;;;10.85;3.85;;;;;;;8.18;51.13;101351.56;4423291;32;34717;-48
2021/10/24 02:21:42;;;;;;;8.07;3.03;;;;;;;8.30;50.83;101352.03;4423310;32;35132;-47
2021/10/24 02:24:10;;;;;;;8.68;3.58;;;;;;;8.22;50.98;101344.81;4422935;32;34449;-47
2021/10/24 02:26:38;;;;;;;11.57;3.28;;;;;;;8.29;50.94;101345.09;4421828;32;34156;-47
2021/10/24 02:29:06;;;;;;;5.87;2.95;;;;;;;8.36;50.81;101341.87;4423026;32;34702;-48
2021/10/24 02:31:34;;;;;;;7.75;2.70;;;;;;;8.31;50.79;101353.81;4423236;32;34500;-47
2021/10/24 02:34:03;;;;;;;11.45;3.30;;;;;;;8.35;50.90;101350.47;4421664;32;33703;-47
2021/10/24 02:36:31;;;;;;;6.78;3.15;;;;;;;8.13;51.22;101353.13;4423140;32;34661;-47
2021/10/24 02:38:59;;;;;;;7.72;2.78;;;;;;;8.36;50.88;101341.87;4423120;32;35041;-49
2021/10/24 02:41:28;;;;;;;6.15;3.05;;;;;;;8.38;50.73;101339.31;4422737;32;34837;-47
2021/10/24 02:43:57;;;;;;;8.52;3.00;;;;;;;8.37;50.62;101338.44;4422910;32;33616;-47
2021/10/24 02:46:25;;;;;;;7.30;2.80;;;;;;;8.44;50.45;101344.72;4422813;32;34489;-47
2021/10/24 02:48:53;;;;;;;8.05;3.92;;;;;;;8.38;50.57;101350.59;4422867;32;35506;-47
2021/10/24 02:51:21;;;;;;;9.00;3.00;;;;;;;8.35;51.00;101345.28;4423096;32;34352;-47
2021/10/24 02:53:55;;;;;;;6.53;2.62;;;;;;;8.23;51.21;101351.72;4422876;32;33807;-47
2021/10/24 02:56:22;;;;;;;10.75;3.60;;;;;;;8.25;51.14;101348.34;4422830;32;34664;-47
2021/10/24 02:58:50;;;;;;;7.68;2.97;;;;;;;8.37;50.91;101353.13;4421590;32;34920;-47
2021/10/24 03:01:21;;;;;;;8.88;3.85;;;;;;;8.29;51.14;101352.88;4423110;32;34217;-47
2021/10/24 03:03:49;;;;;;;8.27;3.35;;;;;;;8.23;51.44;101360.38;4422754;32;33299;-48
2021/10/24 03:06:17;;;;;;;8.55;2.85;;;;;;;8.14;51.67;101370.44;4422842;32;34666;-48
2021/10/24 03:08:45;;;;;;;11.18;3.42;;;;;;;8.12;51.58;101367.81;4421657;32;34825;-47
2021/10/24 03:11:12;;;;;;;6.87;3.28;;;;;;;8.07;51.71;101368.47;4422462;32;34048;-47
2021/10/24 03:13:40;;;;;;;7.37;4.20;;;;;;;8.08;52.03;101367.66;4422692;32;34383;-47
2021/10/24 03:16:08;;;;;;;6.53;2.90;;;;;;;7.90;52.14;101369.59;4423037;32;33921;-47
2021/10/24 03:18:36;;;;;;;7.60;3.17;;;;;;;7.95;52.19;101360.28;4422674;32;35086;-47
2021/10/24 03:21:04;;;;;;;7.25;3.28;;;;;;;7.99;52.08;101365.63;4422877;32;34309;-47
2021/10/24 03:23:32;;;;;;;10.68;3.30;;;;;;;7.85;52.53;101371.12;4421413;32;34501;-48
2021/10/24 03:26:00;;;;;;;10.35;3.97;;;;;;;7.65;53.09;101372.16;4422810;32;34639;-47
2021/10/24 03:28:28;;;;;;;11.15;4.65;;;;;;;7.75;52.69;101385.47;4422552;32;34403;-47
2021/10/24 03:30:56;;;;;;;8.02;3.15;;;;;;;7.83;52.55;101380.56;4422773;32;34542;-48
2021/10/24 03:33:24;;;;;;;8.10;3.20;;;;;;;7.82;52.47;101382.28;4422740;32;33396;-47
2021/10/24 03:35:52;;;;;;;7.40;2.90;;;;;;;7.88;52.60;101384.22;4422547;32;34262;-47
2021/10/24 03:38:20;;;;;;;10.05;3.62;;;;;;;7.73;53.08;101383.66;4422706;32;35836;-47
2021/10/24 03:40:48;;;;;;;8.60;2.95;;;;;;;7.81;52.79;101382.22;4422690;32;34499;-47
2021/10/24 03:43:15;;;;;;;6.80;2.90;;;;;;;7.67;53.25;101388.63;4422473;32;34178;-47
2021/10/24 03:45:44;;;;;;;11.38;3.35;;;;;;;7.60;53.19;101400.47;4422694;32;33761;-47
2021/10/24 03:48:11;;;;;;;9.23;3.78;;;;;;;7.62;53.19;101397.94;4419553;32;90262;-47
2021/10/24 03:50:40;;;;;;;10.63;4.03;;;;;;;7.68;53.11;101396.44;4422378;32;34324;-47
2021/10/24 03:53:07;;;;;;;11.10;4.72;;;;;;;7.77;53.03;101401.09;4422342;32;33527;-47
2021/10/24 03:55:35;;;;;;;8.85;5.30;;;;;;;7.63;53.22;101389.34;4421398;32;33623;-47
2021/10/24 03:58:03;;;;;;;9.77;5.47;;;;;;;7.43;53.83;101393.78;4422606;32;34756;-47
2021/10/24 04:00:30;;;;;;;9.02;4.68;;;;;;;7.42;53.79;101394.59;4422346;32;34489;-47
2021/10/24 04:03:01;;;;;;;8.15;5.05;;;;;;;7.38;54.02;101403.06;4422412;32;34218;-47
2021/10/24 04:05:30;;;;;;;14.95;5.70;;;;;;;7.39;53.86;101399.69;4422625;32;33820;-47
2021/10/24 04:07:59;;;;;;;8.55;4.75;;;;;;;7.49;53.78;101406.94;4422382;32;34889;-47
2021/10/24 04:10:27;;;;;;;9.80;5.03;;;;;;;7.34;54.01;101409.84;4422388;32;34448;-47
2021/10/24 04:12:55;;;;;;;9.75;4.93;;;;;;;7.31;54.02;101411.44;4422513;32;33425;-46
2021/10/24 04:15:24;;;;;;;13.55;4.32;;;;;;;7.34;53.89;101407.28;4422203;32;34637;-47
2021/10/24 04:17:52;;;;;;;11.98;4.50;;;;;;;7.35;53.77;101403.84;4422125;32;34691;-47
2021/10/24 04:20:21;;;;;;;8.25;3.90;;;;;;;7.41;53.58;101413.56;4422265;32;34458;-47
2021/10/24 04:22:50;;;;;;;7.75;3.97;;;;;;;7.34;53.84;101407.28;4421260;32;34393;-47
2021/10/24 04:25:19;;;;;;;7.45;3.45;;;;;;;7.25;54.15;101411.22;4422249;32;33675;-46
2021/10/24 04:27:48;;;;;;;9.85;3.60;;;;;;;7.27;54.23;101414.72;4422039;32;35137;-47
2021/10/24 04:30:15;;;;;;;9.38;3.70;;;;;;;7.12;54.55;101412.44;4422123;32;34505;-47
2021/10/24 04:32:43;;;;;;;7.30;3.62;;;;;;;7.19;54.35;101414.44;4422137;32;33367;-47
2021/10/24 04:35:12;;;;;;;7.60;3.15;;;;;;;7.05;54.82;101418.19;4422175;32;33599;-47
2021/10/24 04:37:40;;;;;;;5.90;3.37;;;;;;;7.06;54.87;101419.09;4422070;32;35094;-47
2021/10/24 04:40:09;;;;;;;8.65;3.37;;;;;;;6.92;55.12;101421.09;4422098;32;34884;-46
2021/10/24 04:42:38;;;;;;;7.25;3.58;;;;;;;6.72;55.72;101416.84;4421993;32;32887;-46
2021/10/24 04:45:08;;;;;;;6.85;3.53;;;;;;;6.98;55.22;101418.78;4420609;32;33926;-47
2021/10/24 04:47:36;;;;;;;9.75;4.00;;;;;;;6.97;55.18;101414.41;4422069;32;34819;-47
2021/10/24 04:50:05;;;;;;;9.77;3.78;;;;;;;6.91;55.30;101429.69;4421643;32;34329;-47
2021/10/24 04:52:34;;;;;;;8.07;3.87;;;;;;;6.80;55.40;101425.78;4421864;32;34440;-46
2021/10/24 04:55:02;;;;;;;13.02;3.70;;;;;;;6.91;54.93;101426.22;4421551;32;33830;-47
2021/10/24 04:57:30;;;;;;;7.72;3.67;;;;;;;6.85;55.21;101424.25;4421862;32;34647;-47
2021/10/24 04:59:59;;;;;;;9.52;3.30;;;;;;;6.93;54.77;101421.97;4420284;32;35209;-47
2021/10/24 05:02:26;;;;;;;7.50;3.60;;;;;;;6.83;54.89;101423.31;4421459;32;33642;-47
2021/10/24 05:04:54;;;;;;;8.57;3.70;;;;;;;6.91;54.88;101428.81;4421893;32;34770;-47
2021/10/24 05:07:22;;;;;;;8.88;3.65;;;;;;;6.74;55.17;101426.44;4421370;32;35370;-47
2021/10/24 05:09:50;;;;;;;6.65;3.17;;;;;;;6.66;55.43;101424.34;4420414;32;34274;-47
2021/10/24 05:12:17;;;;;;;12.32;4.62;;;;;;;6.56;55.59;101423.06;4421313;32;33357;-47
2021/10/24 05:14:45;;;;;;;13.48;8.52;;;;;;;6.54;56.04;101416.06;4421596;32;33947;-47
2021/10/24 05:17:13;;;;;;;13.43;8.00;;;;;;;6.43;56.42;101422.50;4421600;32;33761;-47
2021/10/24 05:19:41;;;;;;;10.85;6.20;;;;;;;6.46;56.64;101427.81;4421618;32;34760;-47
2021/10/24 05:22:09;;;;;;;11.93;5.35;;;;;;;6.57;56.22;101426.53;4421285;32;33629;-47
2021/10/24 05:24:36;;;;;;;11.45;4.55;;;;;;;6.76;55.76;101418.72;4419949;32;33892;-47
2021/10/24 05:27:04;;;;;;;11.40;5.68;;;;;;;6.60;56.40;101426.69;4421393;32;34934;-47
2021/10/24 05:29:32;;;;;;;11.00;4.40;;;;;;;6.56;56.56;101432.56;4421062;32;34306;-47
2021/10/24 05:31:59;;;;;;;7.53;4.45;;;;;;;6.43;56.77;101451.81;4421211;32;33521;-47
2021/10/24 05:34:27;;;;;;;10.82;6.05;;;;;;;6.62;56.17;101446.59;4422373;32;33696;-47
2021/10/24 05:36:55;;;;;;;12.40;6.47;;;;;;;6.64;56.25;101457.00;4423301;32;35298;-46
2021/10/24 05:39:22;;;;;;;9.65;5.20;;;;;;;6.57;56.59;101463.63;4423580;32;34202;-48
2021/10/24 05:41:50;;;;;;;7.68;4.03;;;;;;;6.63;56.44;101463.00;4423134;32;33699;-47
2021/10/24 05:44:19;;;;;;;11.32;4.12;;;;;;;6.49;56.87;101466.72;4423545;32;33781;-46
2021/10/24 05:46:48;;;;;;;8.00;4.32;;;;;;;6.64;56.45;101472.50;4423269;32;34738;-51
2021/10/24 05:49:16;;;;;;;8.90;3.55;;;;;;;6.72;56.59;101472.03;4423378;32;34425;-48
2021/10/24 05:51:46;;;;;;;9.85;4.12;;;;;;;6.82;56.25;101479.31;4423516;32;33957;-47
2021/10/24 05:54:13;;;;;;;9.05;3.62;;;;;;;6.67;56.62;101481.31;4423133;32;33913;-48
2021/10/24 05:56:41;;;;;;;10.20;4.07;;;;;;;7.01;55.83;101478.41;4423527;32;34812;-47
2021/10/24 05:59:10;;;;;;;8.38;3.60;;;;;;;7.22;55.21;101487.03;4423403;32;34169;-51
2021/10/24 06:01:38;;;;;;;8.35;3.75;;;;;;;7.42;54.44;101488.66;4423381;32;34290;-47
2021/10/24 06:04:07;;;;;;;6.53;3.37;;;;;;;7.32;54.45;101490.84;4423389;32;34728;-49
2021/10/24 06:06:38;;;;;;;5.93;3.40;;;;;;;7.58;53.87;101489.28;4422239;32;34420;-46
2021/10/24 06:09:06;;;;;;;9.38;3.62;;;;;;;7.76;53.41;101490.84;4423435;32;34064;-49
2021/10/24 06:11:47;;;;;;;12.07;4.20;;;;;;;7.88;53.13;101496.50;4422942;32;33516;-48
2021/10/24 06:14:15;;;;;;;6.82;3.55;;;;;;;8.00;53.18;101496.06;4422375;32;33883;-48
2021/10/24 06:16:43;;;;;;;9.50;4.50;;;;;;;8.23;52.56;101509.84;4423183;32;35850;-48
2021/10/24 06:19:10;;;;;;;7.43;3.83;;;;;;;8.37;52.10;101504.34;4423080;32;34320;-48
2021/10/24 06:21:38;;;;;;;7.90;3.53;;;;;;;8.35;52.50;101510.31;4423353;32;34462;-49
2021/10/24 06:24:06;;;;;;;8.95;3.35;;;;;;;8.56;52.24;101516.25;4423019;32;34681;-48
2021/10/24 06:26:33;;;;;;;10.13;4.60;;;;;;;8.77;51.70;101511.84;4423261;32;34786;-48
2021/10/24 06:29:02;;;;;;;10.13;4.93;;;;;;;8.65;52.08;101514.87;4423165;32;34260;-48
2021/10/24 06:31:32;;;;;;;10.55;5.03;;;;;;;8.89;51.36;101516.56;4422029;32;33570;-49
2021/10/24 06:34:02;;;;;;;11.45;5.53;;;;;;;8.99;51.09;101523.78;4423129;32;32161;-48
2021/10/24 06:36:31;;;;;;;10.98;5.35;;;;;;;9.18;50.56;101531.34;4423092;32;34600;-48
2021/10/24 06:39:01;;;;;;;12.23;4.93;;;;;;;9.27;50.47;101537.72;4423158;32;34560;-48
2021/10/24 06:41:29;;;;;;;8.80;3.97;;;;;;;9.31;50.43;101541.31;4423074;32;34442;-49
2021/10/24 06:43:57;;;;;;;9.05;4.50;;;;;;;9.30;50.63;101548.22;4423080;32;33788;-48
2021/10/24 06:46:26;;;;;;;11.65;4.60;;;;;;;9.51;50.33;101548.91;4420924;32;33263;-49
2021/10/24 06:48:56;;;;;;;9.20;3.50;;;;;;;9.60;50.07;101565.63;4422744;32;33837;-48
2021/10/24 06:51:30;;;;;;;10.10;4.35;;;;;;;9.83;49.47;101562.91;4423040;32;33440;-48
2021/10/24 06:54:01;;;;;;;9.10;4.22;;;;;;;9.98;49.11;101560.75;4423125;32;33723;-49
2021/10/24 06:56:32;;;;;;;12.37;3.92;;;;;;;10.14;48.66;101562.13;4421727;32;38139;-51
2021/10/24 06:59:05;;;;;;;10.88;4.32;;;;;;;10.26;48.72;101559.00;4423119;32;33588;-48
2021/10/24 07:01:39;;;;;;;14.18;7.00;;;;;;;10.19;49.20;101564.03;4423083;32;32085;-49
2021/10/24 07:04:17;;;;;;;15.65;7.05;;;;;;;10.22;48.88;101558.03;4423268;32;32492;-48
2021/10/24 07:06:45;;;;;;;11.12;6.05;;;;;;;10.27;48.82;101563.38;4422882;32;34476;-48
2021/10/24 07:09:14;;;;;;;17.90;6.70;;;;;;;10.42;48.38;101562.09;4423013;32;34395;-50
2021/10/24 07:12:01;;;;;;;13.93;6.30;;;;;;;10.22;48.60;101562.37;4421811;32;33414;-46
2021/10/24 07:14:30;;;;;;;14.18;6.82;;;;;;;10.29;47.78;101564.31;4423070;32;33721;-48
2021/10/24 07:16:57;;;;;;;14.07;5.65;;;;;;;10.38;48.04;101564.56;4422665;32;36070;-48
2021/10/24 07:19:25;;;;;;;15.07;6.65;;;;;;;10.74;47.10;101561.22;4422799;32;34526;-49
2021/10/24 07:21:52;;;;;;;9.05;5.82;;;;;;;10.93;46.88;101553.94;4422665;32;34091;-49
2021/10/24 07:24:22;;;;;;;14.80;6.65;;;;;;;11.09;46.54;101569.97;4422777;32;34735;-48
2021/10/24 07:26:50;;;;;;;14.30;5.80;;;;;;;11.30;46.33;101560.09;4422801;32;35646;-48
2021/10/24 07:29:17;;;;;;;11.85;5.75;;;;;;;11.39;45.76;101565.53;4422675;32;34240;-47
2021/10/24 07:31:45;;;;;;;12.18;4.93;;;;;;;11.66;44.87;101580.94;4422189;32;34801;-46
2021/10/24 07:34:16;;;;;;;9.88;5.12;;;;;;;11.45;45.29;101570.91;4422730;32;34765;-48
2021/10/24 07:36:43;;;;;;;9.90;4.82;;;;;;;11.60;44.87;101587.75;4422678;32;35546;-48
2021/10/24 07:39:11;;;;;;;8.18;4.10;;;;;;;11.58;44.83;101593.78;4422469;32;35261;-48
2021/10/24 07:41:39;;;;;;;8.82;4.40;;;;;;;11.91;43.80;101598.09;4422595;32;33495;-47
2021/10/24 07:44:07;;;;;;;9.15;4.10;;;;;;;11.84;44.14;101606.63;4422820;32;33891;-47
2021/10/24 07:46:36;;;;;;;8.75;4.50;;;;;;;12.12;42.86;101588.97;4422334;32;34402;-47
2021/10/24 07:49:04;;;;;;;8.93;4.50;;;;;;;11.95;43.79;101594.69;4422287;32;35331;-47
2021/10/24 07:51:32;;;;;;;9.90;4.82;;;;;;;11.78;44.83;101591.69;4422204;32;34395;-48
2021/10/24 07:54:04;;;;;;;9.57;4.50;;;;;;;12.00;44.23;101598.28;4422436;32;34386;-47
2021/10/24 07:56:36;;;;;;;9.13;4.72;;;;;;;12.04;44.31;101594.88;4421104;32;35669;-48
2021/10/24 07:59:04;;;;;;;8.05;4.62;;;;;;;11.93;44.84;101610.28;4421215;32;33790;-47
2021/10/24 08:01:35;;;;;;;10.35;5.05;;;;;;;12.20;44.21;101592.66;4422578;32;33352;-47
2021/10/24 08:04:05;;;;;;;10.20;5.63;;;;;;;12.34;43.97;101594.69;4421141;32;34371;-47
2021/10/24 08:06:37;;;;;;;7.70;4.47;;;;;;;12.43;43.82;101594.88;4408260;32;34325;-47
2021/10/24 08:09:08;;;;;;;8.63;4.72;;;;;;;12.57;43.33;101599.53;4422118;32;34992;-47
2021/10/24 08:11:36;;;;;;;11.25;5.00;;;;;;;12.65;43.16;101605.75;4422372;32;33312;-47
2021/10/24 08:14:06;;;;;;;9.93;4.65;;;;;;;12.39;44.17;101595.63;4422025;32;34625;-47
2021/10/24 08:16:37;;;;;;;12.60;5.78;;;;;;;12.67;45.63;101591.00;4422294;32;34723;-49
2021/10/24 08:19:08;;;;;;;6.25;3.72;;;;;;;12.89;43.55;101594.91;4421503;32;35027;-47
2021/10/24 08:21:36;;;;;;;13.18;5.03;;;;;;;13.08;47.17;101590.94;4422215;32;33551;-47
2021/10/24 08:24:04;;;;;;;10.68;5.82;;;;;;;13.42;45.04;101585.44;4421963;32;33883;-47
2021/10/24 08:26:32;;;;;;;11.57;5.25;;;;;;;13.62;42.15;101588.38;4422277;32;34845;-48
2021/10/24 08:29:00;;;;;;;11.80;4.50;;;;;;;13.76;41.70;101598.19;4421819;32;34544;-49
2021/10/24 08:31:32;;;;;;;11.00;5.05;;;;;;;13.88;43.57;101597.50;4408504;32;33150;-49
2021/10/24 08:34:01;;;;;;;11.20;5.07;;;;;;;14.06;41.22;101592.53;4422198;32;34336;-49
2021/10/24 08:36:29;;;;;;;9.75;5.25;;;;;;;14.19;40.29;101592.69;4420791;32;35257;-48
2021/10/24 08:38:57;;;;;;;9.05;4.72;;;;;;;14.07;39.83;101597.75;4421874;32;35123;-49
2021/10/24 08:41:29;;;;;;;7.82;4.10;;;;;;;14.22;39.61;101597.97;4420793;32;34415;-51
2021/10/24 08:44:01;;;;;;;6.50;3.60;;;;;;;14.25;38.81;101603.25;4422048;32;34858;-49
2021/10/24 08:46:30;;;;;;;9.90;3.53;;;;;;;14.24;38.12;101605.84;4421847;32;35440;-49
2021/10/24 08:48:58;;;;;;;9.23;2.67;;;;;;;14.06;38.19;101597.75;4421544;32;34170;-49
2021/10/24 08:51:27;;;;;;;5.45;3.00;;;;;;;14.11;37.35;101601.31;4421738;32;33692;-48
2021/10/24 08:53:56;;;;;;;12.30;4.18;;;;;;;14.17;37.87;101601.38;4421598;32;34075;-48
2021/10/24 08:56:26;;;;;;;8.20;3.53;;;;;;;14.31;38.29;101596.37;4421011;32;35215;-48
2021/10/24 08:58:53;;;;;;;7.10;3.50;;;;;;;14.37;37.03;101599.97;4421089;32;34566;-48
2021/10/24 09:01:21;;;;;;;9.50;3.50;;;;;;;14.42;37.38;101608.75;4421200;32;33578;-47
2021/10/24 09:04:13;;;;;;;8.77;3.20;;;;;;;14.40;37.58;101609.59;4421140;32;33899;-48
2021/10/24 09:06:59;;;;;;;7.45;3.00;;;;;;;14.49;37.19;101604.47;4420300;32;35777;-48
2021/10/24 09:09:31;;;;;;;5.53;2.35;;;;;;;14.48;37.16;101605.31;4422563;32;35219;-48
2021/10/24 09:12:02;;;;;;;4.85;2.30;;;;;;;14.77;36.14;101606.53;4422076;32;34043;-48
2021/10/24 09:14:48;;;;;;;3.37;2.10;;;;;;;14.59;36.27;101601.09;4422406;32;33391;-48
2021/10/24 09:17:21;;;;;;;11.12;2.75;;;;;;;14.37;36.65;101591.22;4423032;32;34937;-48
2021/10/24 09:19:53;;;;;;;5.00;2.40;;;;;;;14.48;36.93;101598.34;4423572;32;34183;-51
2021/10/24 09:22:27;;;;;;;;;;;;;;;14.66;36.81;101597.69;4423693;32;33986;-49
2021/10/24 09:25:08;;;;;;;6.07;2.22;;;;;;;14.77;36.22;101593.44;4423586;32;34987;-49
2021/10/24 09:27:53;;;;;;;6.97;2.33;;;;;;;14.82;35.97;101594.38;4423049;32;35578;-48
2021/10/24 09:30:27;;;;;;;4.50;2.05;;;;;;;14.77;37.60;101591.72;4423475;32;35147;-49
2021/10/24 09:33:05;;;;;;;3.97;2.03;;;;;;;14.91;36.47;101595.34;4423137;32;33722;-48
2021/10/24 09:35:35;;;;;;;9.48;2.70;;;;;;;14.94;35.79;101594.50;4423265;32;33707;-48
2021/10/24 09:38:19;;;;;;;9.38;2.92;;;;;;;14.96;36.69;101584.03;4422040;32;33525;-49
2021/10/24 09:40:54;;;;;;;5.40;2.40;;;;;;;15.14;36.09;101595.56;4421799;32;34634;-48
2021/10/24 09:43:27;;;;;;;9.45;2.10;;;;;;;14.99;34.45;101598.06;4422985;32;34123;-49
2021/10/24 09:45:57;;;;;;;10.18;2.95;;;;;;;15.14;34.97;101598.19;4422709;32;34824;-48
2021/10/24 09:48:29;;;;;;;7.60;2.67;;;;;;;15.13;35.14;101590.31;4422734;32;35033;-48
2021/10/24 09:51:03;;;;;;;7.40;2.72;;;;;;;15.17;34.85;101603.47;4422939;32;35167;-50
2021/10/24 09:53:35;;;;;;;5.55;2.40;;;;;;;15.19;34.79;101593.88;4423174;32;33491;-48
2021/10/24 09:56:07;;;;;;;6.22;2.62;;;;;;;15.28;34.44;101585.25;4423321;32;34560;-48
2021/10/24 09:58:35;;;;;;;9.15;2.37;;;;;;;15.39;34.51;101579.22;4423258;32;35340;-49
2021/10/24 10:01:05;;;;;;;5.95;2.20;;;;;;;15.40;34.27;101586.19;4423137;32;35141;-50
2021/10/24 10:03:33;;;;;;;5.57;1.83;;;;;;;15.63;33.91;101588.16;4421648;32;34415;-49
2021/10/24 10:06:01;;;;;;;5.32;2.20;;;;;;;15.61;33.81;101595.16;4422647;32;34740;-48
2021/10/24 10:08:44;;;;;;;5.85;2.12;;;;;;;15.56;33.67;101593.37;4421782;32;35559;-48
2021/10/24 10:11:19;;;;;;;5.47;1.85;;;;;;;15.58;33.70;101590.75;4423429;32;34240;-48
2021/10/24 10:13:57;;;;;;;4.32;1.58;;;;;;;15.57;33.49;101584.62;4422887;32;33585;-50
2021/10/24 10:16:46;;;;;;;4.22;1.90;;;;;;;15.63;32.84;101582.94;4421853;32;34815;-50
2021/10/24 10:19:14;;;;;;;6.60;2.12;;;;;;;15.67;33.47;101590.81;4421685;32;34643;-48
2021/10/24 10:21:47;;;;;;;5.72;2.00;;;;;;;15.86;33.46;101589.19;4421471;32;34996;-48
2021/10/24 10:24:33;;;;;;;7.93;1.62;;;;;;;15.74;33.15;101590.00;4422734;32;34434;-48
2021/10/24 10:27:26;;;;;;;4.35;1.52;;;;;;;15.67;32.05;101584.69;4422058;32;33736;-49
2021/10/24 10:30:09;;;;;;;8.57;2.53;;;;;;;15.81;31.79;101577.81;4422800;32;35808;-48
2021/10/24 10:32:39;;;;;;;6.07;2.10;;;;;;;15.49;32.57;101569.72;4422685;32;35243;-48
2021/10/24 10:35:09;;;;;;;6.35;1.70;;;;;;;15.78;31.75;101567.31;4422580;32;33541;-48
2021/10/24 10:37:56;;;;;;;7.43;2.50;;;;;;;15.63;32.04;101572.44;4422487;32;34002;-49
2021/10/24 10:40:30;;;;;;;5.03;1.52;;;;;;;15.73;32.16;101574.25;4422513;32;34580;-48
2021/10/24 10:43:18;;;;;;;5.25;1.95;;;;;;;15.52;32.31;101578.47;4421910;32;34911;-50
2021/10/24 10:45:52;;;;;;;5.85;1.75;;;;;;;15.75;34.17;101573.41;4421630;32;33639;-49
2021/10/24 10:48:25;;;;;;;6.97;1.67;;;;;;;15.58;31.74;101570.66;4420161;32;34863;-50
2021/10/24 10:51:13;;;;;;;6.18;1.65;;;;;;;15.62;32.21;101566.31;4421032;32;34756;-48
2021/10/24 10:53:47;;;;;;;3.90;1.77;;;;;;;15.67;32.62;101563.72;4418456;32;34945;-49
2021/10/24 10:56:21;;;;;;;7.35;1.95;;;;;;;15.80;32.18;101553.34;4420067;32;33869;-48
2021/10/24 10:58:51;;;;;;;3.62;1.75;;;;;;;15.78;31.38;101562.06;4420821;32;34365;-48
2021/10/24 11:01:28;;;;;;;4.78;2.03;;;;;;;15.53;31.80;101556.63;4421209;32;35841;-48
2021/10/24 11:04:00;;;;;;;4.53;2.20;;;;;;;15.53;31.83;101556.63;4420510;32;34255;-49
2021/10/24 11:06:27;;;;;;;5.47;2.20;;;;;;;15.73;31.25;101558.53;4420393;32;33571;-48
2021/10/24 11:08:59;;;;;;;4.30;1.60;;;;;;;15.83;30.81;101561.19;4419834;32;34806;-48
2021/10/24 11:11:39;;;;;;;8.05;2.00;;;;;;;15.73;31.12;101563.78;4418469;32;35819;-49
2021/10/24 11:14:20;;;;;;;5.68;2.42;;;;;;;15.83;30.87;101557.72;4419111;32;35812;-49
2021/10/24 11:16:47;;;;;;;5.03;1.92;;;;;;;15.93;30.73;101556.88;4419125;32;33670;-48
2021/10/24 11:19:36;;;;;;;5.68;2.03;;;;;;;15.75;30.15;101562.03;4418405;32;35089;-48
2021/10/24 11:22:14;;;;;;;5.60;1.60;;;;;;;15.92;30.51;101558.66;4420337;32;34940;-49
2021/10/24 11:24:51;;;;;;;6.47;1.42;;;;;;;15.77;31.20;101549.78;4419800;32;34421;-48
2021/10/24 11:27:34;;;;;;;5.03;1.75;;;;;;;15.82;30.72;101555.94;4420644;32;33575;-48
2021/10/24 11:30:06;;;;;;;4.82;1.85;;;;;;;15.93;30.25;101551.63;4421408;32;34399;-50
2021/10/24 11:32:37;;;;;;;4.68;1.48;;;;;;;15.87;30.77;101551.63;4418261;32;34881;-48
2021/10/24 11:35:13;;;;;;;5.87;1.62;;;;;;;16.08;30.07;101547.38;4418650;32;34346;-50
2021/10/24 11:37:45;;;;;;;3.78;1.58;;;;;;;15.82;31.61;101550.72;4421476;32;33685;-48
2021/10/24 11:40:17;;;;;;;3.70;1.70;;;;;;;16.10;30.92;101556.13;4417649;32;33659;-49
2021/10/24 11:43:09;;;;;;;4.70;1.67;;;;;;;16.12;30.39;101553.50;4418813;32;34812;-48